createdAt,value
2018-12-13T00:00:51.984Z,5.97
2018-12-13T00:03:19.396Z,6.13
2018-12-13T00:05:46.812Z,5.93
2018-12-13T00:08:14.368Z,6.10
2018-12-13T00:10:41.776Z,6.27
2018-12-13T00:13:09.482Z,6.40
2018-12-13T00:15:37.890Z,5.80
2018-12-13T00:18:05.349Z,6.10
2018-12-13T00:20:32.820Z,5.90
2018-12-13T00:23:00.544Z,5.80
2018-12-13T00:25:27.998Z,6.03
2018-12-13T00:27:55.399Z,6.43
2018-12-13T00:30:23.115Z,6.10
2018-12-13T00:32:50.523Z,6.33
2018-12-13T00:35:18.867Z,5.93
2018-12-13T00:37:46.723Z,5.97
2018-12-13T00:40:15.013Z,6.47
2018-12-13T00:42:42.447Z,6.30
2018-12-13T00:45:10.215Z,6.30
2018-12-13T00:47:37.687Z,5.93
2018-12-13T00:50:05.308Z,6.40
2018-12-13T00:52:33.324Z,6.17
2018-12-13T00:55:00.803Z,6.53
2018-12-13T00:57:28.205Z,5.80
2018-12-13T00:59:55.776Z,6.17
2018-12-13T01:02:23.684Z,6.30
2018-12-13T01:04:51.092Z,6.03
2018-12-13T01:07:18.860Z,7.03
2018-12-13T01:09:46.260Z,6.70
2018-12-13T01:12:13.662Z,6.90
2018-12-13T01:14:41.112Z,6.60
2018-12-13T01:17:08.517Z,6.27
2018-12-13T01:19:35.917Z,6.70
2018-12-13T01:22:03.348Z,6.33
2018-12-13T01:24:30.748Z,6.97
2018-12-13T01:26:58.983Z,6.40
2018-12-13T01:29:26.716Z,6.13
2018-12-13T01:31:54.118Z,6.03
2018-12-13T01:34:21.805Z,6.30
2018-12-13T01:36:52.373Z,6.57
2018-12-13T01:39:19.892Z,6.80
2018-12-13T01:41:47.294Z,6.67
2018-12-13T01:44:14.823Z,6.90
2018-12-13T01:46:43.021Z,6.73
2018-12-13T01:49:10.428Z,6.60
2018-12-13T01:51:38.098Z,6.87
2018-12-13T01:54:05.502Z,6.40
2018-12-13T01:56:32.921Z,7.13
2018-12-13T01:59:00.341Z,6.37
2018-12-13T02:01:27.742Z,7.07
2018-12-13T02:03:55.139Z,6.43
2018-12-13T02:06:22.556Z,6.47
2018-12-13T02:08:50.364Z,6.60
2018-12-13T02:11:17.766Z,6.40
2018-12-13T02:13:45.309Z,6.47
2018-12-13T02:16:12.703Z,6.00
2018-12-13T02:18:40.121Z,6.17
2018-12-13T02:21:07.678Z,6.37
2018-12-13T02:23:35.081Z,6.33
2018-12-13T02:26:02.610Z,6.13
2018-12-13T02:28:30.165Z,5.70
2018-12-13T02:30:57.559Z,5.80
2018-12-13T02:33:25.068Z,5.93
2018-12-13T02:35:52.525Z,5.93
2018-12-13T02:38:20.017Z,5.80
2018-12-13T02:40:47.420Z,6.27
2018-12-13T02:43:14.996Z,6.27
2018-12-13T02:45:42.816Z,6.20
2018-12-13T02:48:10.418Z,5.90
2018-12-13T02:50:38.004Z,6.20
2018-12-13T02:53:05.713Z,6.30
2018-12-13T02:55:33.108Z,5.83
2018-12-13T02:58:00.663Z,5.67
2018-12-13T03:00:28.496Z,5.87
2018-12-13T03:02:55.954Z,5.63
2018-12-13T03:05:23.650Z,5.70
2018-12-13T03:07:51.330Z,5.37
2018-12-13T03:10:19.732Z,6.03
2018-12-13T03:12:47.450Z,5.73
2018-12-13T03:15:14.856Z,5.90
2018-12-13T03:17:42.793Z,5.70
2018-12-13T03:20:10.437Z,6.00
2018-12-13T03:22:37.845Z,6.00
2018-12-13T03:25:05.544Z,5.97
2018-12-13T03:27:33.108Z,5.50
2018-12-13T03:30:00.514Z,5.93
2018-12-13T03:32:27.921Z,5.60
2018-12-13T03:34:55.887Z,6.00
2018-12-13T03:37:23.283Z,5.50
2018-12-13T03:39:50.701Z,5.73
2018-12-13T03:42:18.263Z,5.50
2018-12-13T03:44:45.678Z,6.03
2018-12-13T03:47:13.419Z,5.53
2018-12-13T03:49:40.935Z,6.17
2018-12-13T03:52:08.341Z,5.80
2018-12-13T03:54:35.745Z,6.03
2018-12-13T03:57:03.515Z,5.80
2018-12-13T03:59:30.936Z,5.73
2018-12-13T04:01:58.336Z,5.70
2018-12-13T04:04:25.787Z,5.60
2018-12-13T04:06:53.195Z,5.73
2018-12-13T04:09:21.389Z,6.00
2018-12-13T04:11:48.976Z,5.80
2018-12-13T04:14:16.408Z,5.37
2018-12-13T04:16:44.223Z,5.73
2018-12-13T04:19:11.763Z,5.47
2018-12-13T04:21:39.223Z,6.00
2018-12-13T04:24:06.639Z,5.90
2018-12-13T04:26:34.064Z,5.60
2018-12-13T04:29:01.474Z,5.70
2018-12-13T04:31:28.879Z,5.73
2018-12-13T04:33:56.405Z,5.80
2018-12-13T04:36:23.812Z,6.00
2018-12-13T04:38:51.840Z,5.70
2018-12-13T04:41:19.381Z,6.30
2018-12-13T04:43:47.949Z,6.17
2018-12-13T04:46:15.341Z,5.70
2018-12-13T04:48:42.889Z,5.73
2018-12-13T04:51:10.308Z,6.17
2018-12-13T04:53:38.620Z,6.03
2018-12-13T04:56:06.166Z,5.77
2018-12-13T04:58:33.580Z,5.43
2018-12-13T05:01:00.974Z,5.63
2018-12-13T05:03:28.746Z,5.90
2018-12-13T05:05:56.150Z,5.83
2018-12-13T05:08:23.552Z,5.53
2018-12-13T05:10:51.986Z,5.60
2018-12-13T05:13:20.611Z,5.70
2018-12-13T05:15:48.135Z,5.60
2018-12-13T05:18:15.939Z,5.70
2018-12-13T05:20:43.394Z,5.93
2018-12-13T05:23:10.801Z,5.90
2018-12-13T05:25:38.421Z,5.37
2018-12-13T05:28:05.825Z,5.60
2018-12-13T05:30:33.225Z,5.13
2018-12-13T05:33:00.993Z,6.07
2018-12-13T05:35:28.451Z,5.50
2018-12-13T05:37:55.857Z,5.33
2018-12-13T05:40:23.571Z,5.63
2018-12-13T05:42:50.971Z,5.43
2018-12-13T05:45:18.375Z,5.30
2018-12-13T05:47:45.827Z,5.10
2018-12-13T05:50:13.427Z,5.17
2018-12-13T05:52:40.831Z,5.40
2018-12-13T05:55:08.599Z,5.17
2018-12-13T05:57:36.243Z,5.30
2018-12-13T06:00:06.037Z,5.17
2018-12-13T06:02:33.851Z,5.60
2018-12-13T06:05:01.264Z,5.23
2018-12-13T06:07:29.533Z,5.33
2018-12-13T06:09:57.139Z,4.83
2018-12-13T06:12:24.540Z,5.23
2018-12-13T06:14:51.947Z,5.37
2018-12-13T06:17:19.639Z,5.70
2018-12-13T06:19:47.046Z,5.73
2018-12-13T06:22:14.455Z,6.17
2018-12-13T06:24:42.194Z,5.67
2018-12-13T06:27:09.676Z,5.87
2018-12-13T06:29:41.769Z,5.67
2018-12-13T06:32:06.523Z,6.03
2018-12-13T06:34:34.558Z,6.10
2018-12-13T06:37:02.139Z,5.93
2018-12-13T06:39:29.701Z,5.40
2018-12-13T06:41:57.105Z,5.63
2018-12-13T06:44:24.574Z,5.77
2018-12-13T06:46:52.009Z,5.50
2018-12-13T06:49:19.411Z,4.83
2018-12-13T06:51:46.828Z,5.10
2018-12-13T06:54:14.336Z,5.40
2018-12-13T06:56:41.740Z,4.43
2018-12-13T06:59:09.136Z,5.20
2018-12-13T07:01:36.919Z,4.97
2018-12-13T07:04:04.334Z,5.13
2018-12-13T07:06:31.753Z,4.50
2018-12-13T07:08:59.386Z,4.67
2018-12-13T07:11:27.748Z,4.63
2018-12-13T07:13:55.154Z,5.50
2018-12-13T07:16:22.882Z,5.30
2018-12-13T07:18:50.280Z,5.20
2018-12-13T07:21:17.692Z,5.30
2018-12-13T07:23:45.466Z,5.37
2018-12-13T07:26:13.560Z,5.23
2018-12-13T07:28:40.969Z,5.13
2018-12-13T07:31:08.644Z,4.90
2018-12-13T07:33:36.053Z,5.40
2018-12-13T07:36:03.456Z,5.37
2018-12-13T07:38:32.008Z,5.50
2018-12-13T07:40:59.420Z,5.87
2018-12-13T07:43:27.322Z,5.90
2018-12-13T07:45:54.827Z,5.60
2018-12-13T07:48:22.735Z,5.60
2018-12-13T07:50:50.207Z,5.77
2018-12-13T07:53:17.735Z,5.40
2018-12-13T07:55:45.145Z,5.50
2018-12-13T07:58:12.551Z,5.37
2018-12-13T08:00:40.083Z,6.00
2018-12-13T08:03:07.590Z,5.47
2018-12-13T08:05:35.084Z,6.23
2018-12-13T08:08:02.550Z,6.60
2018-12-13T08:10:29.959Z,6.00
2018-12-13T08:12:57.369Z,7.37
2018-12-13T08:15:25.125Z,5.50
2018-12-13T08:17:52.578Z,5.93
2018-12-13T08:20:20.040Z,6.17
2018-12-13T08:22:47.476Z,5.30
2018-12-13T08:25:14.877Z,5.60
2018-12-13T08:27:42.284Z,5.50
2018-12-13T08:30:10.280Z,5.23
2018-12-13T08:32:38.475Z,5.67
2018-12-13T08:35:06.120Z,5.10
2018-12-13T08:37:33.670Z,5.30
2018-12-13T08:40:01.355Z,5.27
2018-12-13T08:42:28.966Z,4.47
2018-12-13T08:44:56.425Z,5.03
2018-12-13T08:47:23.832Z,5.40
2018-12-13T08:49:51.238Z,4.47
2018-12-13T08:52:18.721Z,4.50
2018-12-13T08:54:46.219Z,4.57
2018-12-13T08:57:13.631Z,4.27
2018-12-13T08:59:41.393Z,4.40
2018-12-13T09:02:08.855Z,4.60
2018-12-13T09:04:36.774Z,4.10
2018-12-13T09:07:04.220Z,4.10
2018-12-13T09:09:31.619Z,3.97
2018-12-13T09:11:59.024Z,3.53
2018-12-13T09:14:26.629Z,4.33
2018-12-13T09:16:54.019Z,4.23
2018-12-13T09:19:21.427Z,3.80
2018-12-13T09:21:49.020Z,3.90
2018-12-13T09:24:16.423Z,3.80
2018-12-13T09:26:43.831Z,4.23
2018-12-13T09:29:11.500Z,5.10
2018-12-13T09:31:38.909Z,3.73
2018-12-13T09:34:06.315Z,4.10
2018-12-13T09:36:33.969Z,4.20
2018-12-13T09:39:01.380Z,4.13
2018-12-13T09:41:28.784Z,4.03
2018-12-13T09:43:56.344Z,4.47
2018-12-13T09:46:24.439Z,4.30
2018-12-13T09:48:52.132Z,3.97
2018-12-13T09:51:19.799Z,4.37
2018-12-13T09:53:47.287Z,4.60
2018-12-13T09:56:14.999Z,3.57
2018-12-13T09:58:42.611Z,3.87
2018-12-13T10:01:10.032Z,3.50
2018-12-13T10:03:37.437Z,3.77
2018-12-13T10:06:05.201Z,3.97
2018-12-13T10:08:32.640Z,4.00
2018-12-13T10:11:00.103Z,3.70
2018-12-13T10:13:27.661Z,4.00
2018-12-13T10:15:55.056Z,3.93
2018-12-13T10:18:22.658Z,4.50
2018-12-13T10:20:50.323Z,4.03
2018-12-13T10:23:17.719Z,4.10
2018-12-13T10:25:45.196Z,3.70
2018-12-13T10:28:12.912Z,4.30
2018-12-13T10:30:40.307Z,4.20
2018-12-13T10:33:07.713Z,3.80
2018-12-13T10:35:35.147Z,3.90
2018-12-13T10:38:02.605Z,3.93
2018-12-13T10:40:30.005Z,4.23
2018-12-13T10:42:57.545Z,4.53
2018-12-13T10:45:24.952Z,4.53
2018-12-13T10:47:52.352Z,4.40
2018-12-13T10:50:19.789Z,4.47
2018-12-13T10:52:47.188Z,4.87
2018-12-13T10:55:14.591Z,4.80
2018-12-13T10:57:42.289Z,5.10
2018-12-13T11:00:11.785Z,5.10
2018-12-13T11:02:53.084Z,5.17
2018-12-13T11:05:20.484Z,4.53
2018-12-13T11:07:47.884Z,4.93
2018-12-13T11:10:15.856Z,5.07
2018-12-13T11:12:43.264Z,5.07
2018-12-13T11:15:10.674Z,4.90
2018-12-13T11:17:38.443Z,6.10
2018-12-13T11:20:06.357Z,5.00
2018-12-13T11:22:33.912Z,4.47
2018-12-13T11:25:01.523Z,12.93
2018-12-13T11:30:41.163Z,4.67
2018-12-13T11:33:08.556Z,4.83
2018-12-13T11:35:36.061Z,5.10
2018-12-13T11:38:03.567Z,4.60
2018-12-13T11:40:31.597Z,4.57
2018-12-13T11:42:59.516Z,5.30
2018-12-13T11:45:27.184Z,5.13
2018-12-13T11:47:54.612Z,4.97
2018-12-13T11:50:22.001Z,4.50
2018-12-13T11:52:49.424Z,4.83
2018-12-13T11:55:29.737Z,5.67
2018-12-13T11:57:57.430Z,6.13
2018-12-13T12:00:24.892Z,6.27
2018-12-13T12:02:52.305Z,69.73
2018-12-13T12:05:19.916Z,11.73
2018-12-13T12:07:47.328Z,6.40
2018-12-13T12:10:14.791Z,7.73
2018-12-13T12:12:42.496Z,8.47
2018-12-13T12:15:10.228Z,8.50
2018-12-13T12:17:38.284Z,9.37
2018-12-13T12:20:06.812Z,8.50
2018-12-13T12:22:34.321Z,10.43
2018-12-13T12:25:01.784Z,9.93
2018-12-13T12:27:29.397Z,10.20
2018-12-13T12:29:57.202Z,10.37
2018-12-13T12:32:24.593Z,9.90
2018-12-13T12:34:52.013Z,9.87
2018-12-13T12:37:19.408Z,9.27
2018-12-13T12:39:47.522Z,10.53
2018-12-13T12:42:14.948Z,11.47
2018-12-13T12:44:42.351Z,14.00
2018-12-13T12:47:09.755Z,9.87
2018-12-13T12:49:37.189Z,12.50
2018-12-13T12:52:04.679Z,10.20
2018-12-13T12:54:32.075Z,10.63
2018-12-13T12:56:59.693Z,17.97
2018-12-13T12:59:27.090Z,11.47
2018-12-13T13:01:54.766Z,13.57
2018-12-13T13:04:22.487Z,14.40
2018-12-13T13:06:50.023Z,13.53
2018-12-13T13:09:17.423Z,13.23
2018-12-13T13:11:46.025Z,11.67
2018-12-13T13:14:13.492Z,13.00
2018-12-13T13:16:40.995Z,14.83
2018-12-13T13:19:08.537Z,15.17
2018-12-13T13:21:36.028Z,15.07
2018-12-13T13:24:03.499Z,13.43
2018-12-13T13:26:31.110Z,11.80
2018-12-13T13:28:58.823Z,12.73
2018-12-13T13:31:26.241Z,15.47
2018-12-13T13:33:53.738Z,14.00
2018-12-13T13:36:21.187Z,14.90
2018-12-13T13:38:48.613Z,14.13
2018-12-13T13:41:16.375Z,13.30
2018-12-13T13:43:43.767Z,13.47
2018-12-13T13:46:11.173Z,13.10
2018-12-13T13:48:38.760Z,17.20
2018-12-13T13:51:06.220Z,13.70
2018-12-13T13:53:33.934Z,14.57
2018-12-13T13:56:01.525Z,13.60
2018-12-13T13:58:28.935Z,14.07
2018-12-13T14:00:56.714Z,11.80
2018-12-13T14:03:24.619Z,14.17
2018-12-13T14:05:52.914Z,14.30
2018-12-13T14:08:20.422Z,13.80
2018-12-13T14:10:47.968Z,12.80
2018-12-13T14:13:15.672Z,11.20
2018-12-13T14:15:43.068Z,14.50
2018-12-13T14:18:10.487Z,13.37
2018-12-13T14:20:38.303Z,14.03
2018-12-13T14:23:05.768Z,13.83
2018-12-13T14:25:33.248Z,13.03
2018-12-13T14:28:00.736Z,14.37
2018-12-13T14:30:28.188Z,13.17
2018-12-13T14:32:55.733Z,15.60
2018-12-13T14:35:23.122Z,15.57
2018-12-13T14:37:50.525Z,15.87
2018-12-13T14:40:18.092Z,13.87
2018-12-13T14:42:45.492Z,14.23
2018-12-13T14:45:13.004Z,15.43
2018-12-13T14:47:40.564Z,16.33
2018-12-13T14:50:08.120Z,14.83
2018-12-13T14:52:35.520Z,15.13
2018-12-13T14:55:02.944Z,17.60
2018-12-13T14:57:30.696Z,16.50
2018-12-13T14:59:59.248Z,13.97
2018-12-13T15:02:26.700Z,15.27
2018-12-13T15:04:54.768Z,16.00
2018-12-13T15:07:22.164Z,15.97
2018-12-13T15:09:51.054Z,19.07
2018-12-13T15:12:19.430Z,20.80
2018-12-13T15:14:46.840Z,18.87
2018-12-13T15:17:14.459Z,17.13
2018-12-13T15:19:42.252Z,16.57
2018-12-13T15:22:09.672Z,16.80
2018-12-13T15:24:38.363Z,16.90
2018-12-13T15:27:06.155Z,15.37
2018-12-13T15:29:33.587Z,14.63
2018-12-13T15:32:01.352Z,15.03
2018-12-13T15:34:29.282Z,16.97
2018-12-13T15:36:56.880Z,16.37
2018-12-13T15:39:24.644Z,16.63
2018-12-13T15:41:52.052Z,18.70
2018-12-13T15:44:19.456Z,24.67
2018-12-13T15:46:47.008Z,20.17
2018-12-13T15:49:14.420Z,25.97
2018-12-13T15:51:42.648Z,19.47
2018-12-13T15:54:10.308Z,30.00
2018-12-13T15:56:37.714Z,32.47
2018-12-13T15:59:05.134Z,30.70
2018-12-13T16:01:32.671Z,25.07
2018-12-13T16:04:00.144Z,24.23
2018-12-13T16:06:27.549Z,26.23
2018-12-13T16:08:55.326Z,27.60
2018-12-13T16:11:22.738Z,18.20
2018-12-13T16:13:50.945Z,22.10
2018-12-13T16:16:18.636Z,22.50
2018-12-13T16:18:46.048Z,18.17
2018-12-13T16:21:13.464Z,24.07
2018-12-13T16:23:41.008Z,24.60
2018-12-13T16:26:08.911Z,21.67
2018-12-13T16:28:36.344Z,22.97
2018-12-13T16:31:04.094Z,23.03
2018-12-13T16:33:31.984Z,19.50
2018-12-13T16:35:59.390Z,17.90
2018-12-13T16:38:26.887Z,22.07
2018-12-13T16:40:54.287Z,17.53
2018-12-13T16:43:21.703Z,16.47
2018-12-13T16:45:49.195Z,17.40
2018-12-13T16:48:16.599Z,17.57
2018-12-13T16:50:44.163Z,19.33
2018-12-13T16:53:11.940Z,22.90
2018-12-13T16:55:39.345Z,27.67
2018-12-13T16:58:06.744Z,21.10
2018-12-13T17:00:34.204Z,18.00
2018-12-13T17:03:05.541Z,17.80
2018-12-13T17:05:33.139Z,16.27
2018-12-13T17:08:00.661Z,15.70
2018-12-13T17:10:28.255Z,16.17
2018-12-13T17:12:55.753Z,15.07
2018-12-13T17:15:23.231Z,17.27
2018-12-13T17:17:50.638Z,15.10
2018-12-13T17:20:18.047Z,16.70
2018-12-13T17:22:45.809Z,17.20
2018-12-13T17:25:13.234Z,16.93
2018-12-13T17:27:41.383Z,10.33
2018-12-13T17:30:09.092Z,10.50
2018-12-13T17:32:36.501Z,18.50
2018-12-13T17:35:05.030Z,9.80
2018-12-13T17:37:32.464Z,9.07
2018-12-13T17:39:59.868Z,8.70
2018-12-13T17:42:28.170Z,9.20
2018-12-13T17:44:55.823Z,10.07
2018-12-13T17:47:23.240Z,8.40
2018-12-13T17:49:50.650Z,18.33
2018-12-13T17:52:18.225Z,11.03
2018-12-13T17:54:45.721Z,8.63
2018-12-13T17:57:13.138Z,10.90
2018-12-13T17:59:40.617Z,9.43
2018-12-13T18:02:08.018Z,24.47
2018-12-13T18:04:35.430Z,11.53
2018-12-13T18:07:03.118Z,11.77
2018-12-13T18:09:31.472Z,19.17
2018-12-13T18:11:59.577Z,19.93
2018-12-13T18:14:27.112Z,27.07
2018-12-13T18:16:54.674Z,23.57
2018-12-13T18:19:22.152Z,28.17
2018-12-13T18:21:49.818Z,11.60
2018-12-13T18:24:17.224Z,24.93
2018-12-13T18:26:45.323Z,27.23
2018-12-13T18:29:12.776Z,15.10
2018-12-13T18:31:40.199Z,19.97
2018-12-13T18:34:09.036Z,12.50
2018-12-13T18:36:36.579Z,23.03
2018-12-13T18:39:07.116Z,24.07
2018-12-13T18:41:34.673Z,18.20
2018-12-13T18:44:02.328Z,13.40
2018-12-13T18:46:30.128Z,13.90
2018-12-13T18:48:57.626Z,15.13
2018-12-13T18:51:25.640Z,12.90
2018-12-13T18:53:53.949Z,12.47
2018-12-13T18:56:21.352Z,9.67
2018-12-13T18:58:48.908Z,9.20
2018-12-13T19:01:16.336Z,9.87
2018-12-13T19:03:43.744Z,7.37
2018-12-13T19:06:11.292Z,7.73
2018-12-13T19:08:38.972Z,9.57
2018-12-13T19:11:06.378Z,11.77
2018-12-13T19:13:34.171Z,6.97
2018-12-13T19:16:02.460Z,6.83
2018-12-13T19:18:29.864Z,7.53
2018-12-13T19:20:57.464Z,7.23
2018-12-13T19:23:25.431Z,7.50
2018-12-13T19:25:52.844Z,6.87
2018-12-13T19:28:20.448Z,6.53
2018-12-13T19:30:48.064Z,6.40
2018-12-13T19:33:15.888Z,6.63
2018-12-13T19:35:43.588Z,6.20
2018-12-13T19:38:11.000Z,6.60
2018-12-13T19:40:38.527Z,6.80
2018-12-13T19:43:06.109Z,6.83
2018-12-13T19:45:33.583Z,6.60
2018-12-13T19:48:01.214Z,6.50
2018-12-13T19:50:28.694Z,6.10
2018-12-13T19:52:56.102Z,6.67
2018-12-13T19:55:23.575Z,8.27
2018-12-13T19:57:51.073Z,6.17
2018-12-13T20:00:18.622Z,7.10
2018-12-13T20:02:46.751Z,7.43
2018-12-13T20:05:14.187Z,7.53
2018-12-13T20:07:41.703Z,12.13
2018-12-13T20:10:09.118Z,18.23
2018-12-13T20:12:36.820Z,16.13
2018-12-13T20:15:04.575Z,21.80
2018-12-13T20:17:32.107Z,30.53
2018-12-13T20:19:59.715Z,14.00
2018-12-13T20:22:27.240Z,22.83
2018-12-13T20:24:54.641Z,15.47
2018-12-13T20:27:22.652Z,22.40
2018-12-13T20:29:50.060Z,21.73
2018-12-13T20:32:17.539Z,8.60
2018-12-13T20:34:46.188Z,19.67
2018-12-13T20:37:13.618Z,9.53
2018-12-13T20:39:41.852Z,12.67
2018-12-13T20:42:09.474Z,7.60
2018-12-13T20:44:36.879Z,6.67
2018-12-13T20:47:04.310Z,6.83
2018-12-13T20:49:31.844Z,7.53
2018-12-13T20:51:59.257Z,7.20
2018-12-13T20:54:26.796Z,7.13
2018-12-13T20:56:54.243Z,6.97
2018-12-13T20:59:21.659Z,7.33
2018-12-13T21:01:49.599Z,7.43
2018-12-13T21:04:17.741Z,7.37
2018-12-13T21:06:47.151Z,6.90
2018-12-13T21:09:14.551Z,6.80
2018-12-13T21:11:42.136Z,7.37
2018-12-13T21:14:09.620Z,6.60
2018-12-13T21:16:37.823Z,7.37
2018-12-13T21:19:05.327Z,7.40
2018-12-13T21:21:32.742Z,8.70
2018-12-13T21:24:00.454Z,7.30
2018-12-13T21:26:28.184Z,7.27
2018-12-13T21:28:55.595Z,7.33
2018-12-13T21:31:23.003Z,7.07
2018-12-13T21:33:50.784Z,7.50
2018-12-13T21:36:18.235Z,6.47
2018-12-13T21:38:45.652Z,6.87
2018-12-13T21:41:13.728Z,6.60
2018-12-13T21:43:41.372Z,6.63
2018-12-13T21:46:08.776Z,6.93
2018-12-13T21:48:36.544Z,6.47
2018-12-13T21:51:03.958Z,6.10
2018-12-13T21:53:31.384Z,7.00
2018-12-13T21:55:59.905Z,6.47
2018-12-13T21:58:27.390Z,6.90
2018-12-13T22:00:54.804Z,5.97
2018-12-13T22:03:22.330Z,7.33
2018-12-13T22:05:50.155Z,7.27
2018-12-13T22:08:17.573Z,6.43
2018-12-13T22:10:45.288Z,6.23
2018-12-13T22:13:12.984Z,7.77
2018-12-13T22:15:40.388Z,6.40
2018-12-13T22:18:07.967Z,6.97
2018-12-13T22:20:35.374Z,6.57
2018-12-13T22:23:02.781Z,6.27
2018-12-13T22:25:30.294Z,5.97
2018-12-13T22:27:57.697Z,6.10
2018-12-13T22:30:25.389Z,6.67
2018-12-13T22:32:53.104Z,6.30
2018-12-13T22:35:20.591Z,6.13
2018-12-13T22:37:47.994Z,6.07
2018-12-13T22:40:15.732Z,6.30
2018-12-13T22:42:43.156Z,6.47
2018-12-13T22:45:10.573Z,6.47
2018-12-13T22:47:38.268Z,6.60
2018-12-13T22:50:05.758Z,6.43
2018-12-13T22:52:33.167Z,6.70
2018-12-13T22:55:00.844Z,7.27
2018-12-13T22:57:28.247Z,6.83
2018-12-13T22:59:55.664Z,6.27
2018-12-13T23:02:23.220Z,6.77
2018-12-13T23:04:50.634Z,6.57
2018-12-13T23:07:18.232Z,6.83
2018-12-13T23:09:45.832Z,6.93
2018-12-13T23:12:13.297Z,6.83
2018-12-13T23:14:40.860Z,6.93
2018-12-13T23:17:08.876Z,6.90
2018-12-13T23:19:36.275Z,6.37
2018-12-13T23:22:04.163Z,6.37
2018-12-13T23:24:31.758Z,6.43
2018-12-13T23:26:59.500Z,6.70
2018-12-13T23:29:26.888Z,6.50
2018-12-13T23:31:54.648Z,6.23
2018-12-13T23:34:22.049Z,7.20
2018-12-13T23:36:49.608Z,6.33
2018-12-13T23:39:17.051Z,6.30
2018-12-13T23:41:44.448Z,6.57
2018-12-13T23:44:12.773Z,6.23
2018-12-13T23:46:40.412Z,6.27
2018-12-13T23:49:07.837Z,7.10
2018-12-13T23:51:35.769Z,6.70
2018-12-13T23:54:03.207Z,6.43
2018-12-13T23:56:30.620Z,6.80
2018-12-13T23:58:58.385Z,7.03
